createdAt,value
2023-03-23T00:00:40.998Z,999.75
2023-03-23T00:07:00.997Z,999.64
2023-03-23T00:13:23.974Z,999.69
2023-03-23T00:19:44.024Z,999.81
2023-03-23T00:26:07.049Z,999.73
2023-03-23T00:32:27.030Z,999.73
2023-03-23T00:38:50.002Z,999.73
2023-03-23T00:45:09.995Z,999.71
2023-03-23T00:51:33.004Z,999.71
2023-03-23T00:57:53.085Z,999.65
2023-03-23T01:04:15.988Z,999.67
2023-03-23T01:10:36.006Z,999.64
2023-03-23T01:16:59.018Z,999.58
2023-03-23T01:23:19.013Z,999.42
2023-03-23T01:29:41.982Z,999.36
2023-03-23T01:36:02.052Z,999.22
2023-03-23T01:42:25.007Z,999.15
2023-03-23T01:48:45.012Z,999.17
2023-03-23T01:55:08.017Z,999.18
2023-03-23T02:01:28.004Z,999.22
2023-03-23T02:07:50.978Z,999.26
2023-03-23T02:14:11.009Z,999.34
2023-03-23T02:20:33.999Z,999.38
2023-03-23T02:26:54.028Z,999.36
2023-03-23T02:33:17.029Z,999.24
2023-03-23T02:39:36.998Z,999.15
2023-03-23T02:45:59.994Z,999.03
2023-03-23T02:52:20.015Z,998.95
2023-03-23T02:58:43.005Z,998.91
2023-03-23T03:05:02.980Z,998.89
2023-03-23T03:11:26.018Z,998.89
2023-03-23T03:17:45.975Z,998.89
2023-03-23T03:24:09.021Z,998.75
2023-03-23T03:30:29.034Z,998.68
2023-03-23T03:36:51.981Z,998.71
2023-03-23T03:43:11.975Z,998.73
2023-03-23T03:49:35.053Z,998.93
2023-03-23T03:55:54.992Z,999.11
2023-03-23T04:02:18.012Z,999.17
2023-03-23T04:08:38.037Z,999.15
2023-03-23T04:15:06.115Z,999.07
2023-03-23T04:21:21.026Z,999.03
2023-03-23T04:27:44.001Z,999.05
2023-03-23T04:44:09.007Z,999.07
2023-03-23T04:50:32.004Z,999.09
2023-03-23T04:56:51.991Z,999.11
2023-03-23T05:03:15.007Z,999.05
2023-03-23T05:09:34.986Z,999.03
2023-03-23T05:15:57.984Z,999.07
2023-03-23T05:22:18.028Z,999.09
2023-03-23T05:28:41.020Z,999.11
2023-03-23T05:35:00.980Z,999.11
2023-03-23T05:41:24.019Z,999.07
2023-03-23T05:47:43.974Z,999.11
2023-03-23T05:54:06.987Z,999.2
2023-03-23T06:00:27.016Z,999.22
2023-03-23T06:06:50.000Z,999.24
2023-03-23T06:13:10.001Z,999.3
2023-03-23T06:19:33.110Z,999.3
2023-03-23T06:25:52.995Z,999.22
2023-03-23T06:32:16.005Z,999.26
2023-03-23T06:38:36.026Z,999.38
2023-03-23T06:44:59.022Z,999.4
2023-03-23T06:51:19.005Z,999.48
2023-03-23T06:57:41.997Z,999.58
2023-03-23T07:04:02.005Z,999.65
2023-03-23T07:10:24.990Z,999.69
2023-03-23T07:16:45.045Z,999.75
2023-03-23T07:23:07.978Z,999.79
2023-03-23T07:29:28.027Z,999.83
2023-03-23T07:35:51.064Z,999.81
2023-03-23T07:42:10.984Z,999.81
2023-03-23T07:48:34.022Z,999.77
2023-03-23T07:54:54.014Z,999.75
2023-03-23T08:01:16.982Z,999.73
2023-03-23T08:07:36.987Z,999.71
2023-03-23T08:14:00.024Z,999.75
2023-03-23T08:20:20.025Z,999.75
2023-03-23T08:26:42.989Z,999.77
2023-03-23T08:33:03.005Z,999.73
2023-03-23T08:39:26.017Z,999.79
2023-03-23T08:45:45.978Z,999.77
2023-03-23T08:52:09.027Z,999.81
2023-03-23T08:58:28.970Z,999.77
2023-03-23T09:04:52.004Z,999.87
2023-03-23T09:11:12.001Z,999.89
2023-03-23T09:17:34.976Z,999.97
2023-03-23T09:23:55.000Z,1000.01
2023-03-23T09:30:18.035Z,1000.09
2023-03-23T09:36:38.009Z,1000.12
2023-03-23T09:43:00.982Z,1000.14
2023-03-23T09:49:21.006Z,1000.14
2023-03-23T10:12:09.243Z,1000.37
2023-03-23T10:18:32.977Z,1000.24
2023-03-23T10:24:53.029Z,1000.22
2023-03-23T10:31:16.017Z,1000.26
2023-03-23T10:37:36.012Z,1000.35
2023-03-23T10:43:59.083Z,1000.42
2023-03-23T10:50:19.012Z,1000.42
2023-03-23T10:56:57.902Z,1000.44
2023-03-23T11:03:01.985Z,1000.46
2023-03-23T11:09:25.154Z,1000.48
2023-03-23T11:15:45.007Z,1000.5
2023-03-23T11:22:08.019Z,1000.46
2023-03-23T11:28:28.012Z,1000.44
2023-03-23T11:34:50.998Z,1000.41
2023-03-23T11:41:11.006Z,1000.35
2023-03-23T11:47:34.030Z,1000.18
2023-03-23T11:53:53.988Z,1000.12
2023-03-23T12:00:17.001Z,1000.14
2023-03-23T12:06:37.300Z,1000.2
2023-03-23T12:13:00.003Z,1000.24
2023-03-23T12:19:19.986Z,1000.18
2023-03-23T12:25:43.126Z,1000.18
2023-03-23T12:32:03.004Z,1000.14
2023-03-23T12:38:25.978Z,1000.22
2023-03-23T12:44:46.045Z,1000.2
2023-03-23T12:51:08.998Z,1000.18
2023-03-23T12:57:28.993Z,1000.12
2023-03-23T13:03:52.034Z,1000.12
2023-03-23T13:10:11.998Z,1000.12
2023-03-23T13:16:34.999Z,1000.22
2023-03-23T13:22:55.040Z,1000.37
2023-03-23T13:29:18.039Z,1000.2
2023-03-23T13:35:38.023Z,1000.09
2023-03-23T13:42:01.055Z,1000.05
2023-03-23T13:48:21.029Z,1000.07
2023-03-23T13:54:44.009Z,1000.07
2023-03-23T14:01:04.039Z,1000.03
2023-03-23T14:07:26.993Z,1000.05
2023-03-23T14:13:47.015Z,1000.07
2023-03-23T14:20:10.305Z,1000.09
2023-03-23T14:26:29.991Z,1000.05
2023-03-23T14:32:52.983Z,1000.03
2023-03-23T14:39:13.024Z,1000.01
2023-03-23T14:45:36.004Z,999.99
2023-03-23T14:51:55.987Z,999.95
2023-03-23T14:58:18.996Z,999.93
2023-03-23T15:04:40.139Z,999.99
2023-03-23T15:11:02.988Z,1000.07
2023-03-23T15:34:44.012Z,999.67
2023-03-23T15:41:03.988Z,999.56
2023-03-23T15:47:27.005Z,999.48
2023-03-23T15:53:47.033Z,999.4
2023-03-23T16:00:10.030Z,999.42
2023-03-23T16:06:29.998Z,999.48
2023-03-23T16:12:53.064Z,999.54
2023-03-23T16:19:13.005Z,999.46
2023-03-23T16:25:36.010Z,999.3
2023-03-23T16:31:56.205Z,999.28
2023-03-23T16:38:18.987Z,999.32
2023-03-23T16:44:39.003Z,999.4
2023-03-23T16:51:02.025Z,999.4
2023-03-23T16:57:21.998Z,999.36
2023-03-23T17:03:45.162Z,999.36
2023-03-23T17:10:05.032Z,999.44
2023-03-23T17:16:28.042Z,999.5
2023-03-23T17:22:47.993Z,999.6
2023-03-23T17:29:11.017Z,999.67
2023-03-23T17:35:31.029Z,999.73
2023-03-23T17:41:53.989Z,999.77
2023-03-23T17:48:14.372Z,999.77
2023-03-23T17:54:36.992Z,999.77
2023-03-23T18:00:57.007Z,999.81
2023-03-23T18:07:20.032Z,999.87
2023-03-23T18:13:39.970Z,999.87
2023-03-23T18:20:02.986Z,999.89
2023-03-23T18:26:23.002Z,999.79
2023-03-23T18:32:46.049Z,999.73
2023-03-23T18:39:05.991Z,999.62
2023-03-23T18:45:28.996Z,999.54
2023-03-23T18:51:48.990Z,999.4
2023-03-23T18:58:11.970Z,999.38
2023-03-23T19:04:32.001Z,999.36
2023-03-23T19:10:55.003Z,999.38
2023-03-23T19:17:15.025Z,999.26
2023-03-23T19:23:38.134Z,999.18
2023-03-23T19:29:58.011Z,999.07
2023-03-23T19:36:21.033Z,999.05
2023-03-23T19:42:41.017Z,998.99
2023-03-23T19:49:04.086Z,998.97
2023-03-23T19:55:24.017Z,999.01
2023-03-23T20:01:47.158Z,999.03
2023-03-23T20:08:07.090Z,999.03
2023-03-23T20:14:30.316Z,998.99
2023-03-23T20:20:52.430Z,998.93
2023-03-23T20:27:13.545Z,998.87
2023-03-23T20:33:32.977Z,998.81
2023-03-23T20:57:22.015Z,998.54
2023-03-23T21:03:44.971Z,998.46
2023-03-23T21:10:05.019Z,998.42
2023-03-23T21:16:28.032Z,998.32
2023-03-23T21:22:47.993Z,998.28
2023-03-23T21:29:10.977Z,998.28
2023-03-23T21:35:31.029Z,998.23
2023-03-23T21:41:53.973Z,998.24
2023-03-23T21:48:13.992Z,998.19
2023-03-23T21:54:36.996Z,998.17
2023-03-23T22:00:57.236Z,998.13
2023-03-23T22:07:19.978Z,998.09
2023-03-23T22:13:39.999Z,998.07
2023-03-23T22:20:02.981Z,998.05
2023-03-23T22:26:23.002Z,997.97
2023-03-23T22:32:46.025Z,997.95
2023-03-23T22:39:05.980Z,997.91
2023-03-23T22:45:29.056Z,997.83
2023-03-23T22:51:49.001Z,997.67
2023-03-23T22:58:11.995Z,997.55
2023-03-23T23:21:09.105Z,997.06
2023-03-23T23:27:29.014Z,997.04
2023-03-23T23:33:51.980Z,996.95
2023-03-23T23:40:12.032Z,996.83
2023-03-23T23:46:35.022Z,996.75
2023-03-23T23:52:55.006Z,996.69
2023-03-23T23:59:18.015Z,996.61
